Time;durP1;ratioP1;P1;durP2;ratioP2;P2;SDS_P1;SDS_P2;PMS_P1;PMS_P2;Temp;Humidity;BMP_temperature;BMP_pressure;BME280_temperature;BME280_humidity;BME280_pressure;Samples;Min_cycle;Max_cycle;Signal;HPM_P1;HPM_P2
2022/01/06 00:01:33;;;;;;;19.98;3.50;;;4.10;99.90;;;;;;4808388;29;20043;-80
2022/01/06 00:03:59;;;;;;;23.25;3.78;;;4.10;99.90;;;;;;4806959;29;20047;-80
2022/01/06 00:06:25;;;;;;;17.85;3.05;;;4.20;99.90;;;;;;4808439;29;20047;-79
2022/01/06 00:08:53;;;;;;;17.35;2.83;;;4.30;99.90;;;;;;4808013;29;20059;-81
2022/01/06 00:11:19;;;;;;;16.10;2.70;;;4.40;99.90;;;;;;4808378;29;20118;-80
2022/01/06 00:14:00;;;;;;;15.95;2.80;;;4.40;99.90;;;;;;4808314;29;20051;-80
2022/01/06 00:24:18;;;;;;;16.67;3.17;;;4.40;99.90;;;;;;4808062;29;20058;-80
2022/01/06 00:26:44;;;;;;;15.43;2.83;;;4.50;99.90;;;;;;4807973;29;20062;-80
2022/01/06 00:29:10;;;;;;;18.02;3.03;;;4.30;99.90;;;;;;4807490;29;20050;-80
2022/01/06 00:31:35;;;;;;;17.10;2.70;;;4.20;99.90;;;;;;4791871;29;20398;-80
2022/01/06 00:34:01;;;;;;;20.38;3.42;;;4.20;99.90;;;;;;4807317;29;20057;-80
2022/01/06 00:36:27;;;;;;;12.60;2.78;;;4.10;99.90;;;;;;4807650;29;20084;-80
2022/01/06 00:38:52;;;;;;;15.38;2.63;;;4.10;99.90;;;;;;4807350;29;20081;-80
2022/01/06 00:41:18;;;;;;;13.18;2.58;;;4.00;99.90;;;;;;4807020;29;20089;-80
2022/01/06 00:43:44;;;;;;;16.63;2.50;;;4.00;99.90;;;;;;4807716;29;20055;-80
2022/01/06 00:46:09;;;;;;;15.88;1.98;;;3.90;99.90;;;;;;4806136;29;20532;-80
2022/01/06 00:48:35;;;;;;;14.60;2.10;;;3.90;99.90;;;;;;4806459;29;20057;-80
2022/01/06 00:51:01;;;;;;;10.60;2.80;;;3.80;99.90;;;;;;4805855;29;20145;-80
2022/01/06 00:53:26;;;;;;;12.13;2.30;;;3.90;99.90;;;;;;4806133;29;20050;-81
2022/01/06 00:55:52;;;;;;;14.73;2.35;;;3.80;99.90;;;;;;4807098;29;20137;-80
2022/01/06 00:58:18;;;;;;;13.32;1.75;;;3.70;99.90;;;;;;4805987;29;20136;-80
2022/01/06 01:00:44;;;;;;;16.17;2.13;;;3.80;99.90;;;;;;4805997;29;20414;-80
2022/01/06 01:03:14;;;;;;;18.05;2.63;;;3.70;99.90;;;;;;4806720;29;20054;-80
2022/01/06 01:05:41;;;;;;;15.60;2.47;;;3.70;99.90;;;;;;4807430;29;20055;-80
2022/01/06 01:08:07;;;;;;;17.73;2.40;;;3.70;99.90;;;;;;4805916;29;20094;-80
2022/01/06 01:10:32;;;;;;;15.60;2.50;;;3.60;99.90;;;;;;4805801;29;20150;-80
2022/01/06 01:12:58;;;;;;;12.90;2.17;;;3.70;99.90;;;;;;4806080;29;20046;-80
2022/01/06 01:15:24;;;;;;;16.63;2.17;;;3.50;99.90;;;;;;4806573;29;20061;-80
2022/01/06 01:17:50;;;;;;;18.92;2.72;;;3.40;99.90;;;;;;4807290;29;20051;-79
2022/01/06 01:20:17;;;;;;;18.70;3.05;;;3.40;99.90;;;;;;4806695;29;20057;-80
2022/01/06 01:22:43;;;;;;;12.13;1.77;;;3.30;99.90;;;;;;4807261;29;20065;-80
2022/01/06 01:25:08;;;;;;;13.00;3.10;;;3.20;99.90;;;;;;4805473;29;20050;-80
2022/01/06 01:27:42;;;;;;;17.45;2.60;;;3.10;99.90;;;;;;4807172;29;20082;-80
2022/01/06 01:30:14;;;;;;;11.55;2.40;;;3.00;99.90;;;;;;4806721;29;20094;-80
2022/01/06 01:32:40;;;;;;;13.35;1.80;;;3.00;99.90;;;;;;4807009;29;20111;-80
2022/01/06 01:35:08;;;;;;;12.27;2.35;;;2.90;99.90;;;;;;4806524;29;20059;-80
2022/01/06 01:37:34;;;;;;;15.10;2.70;;;2.90;99.90;;;;;;4806978;29;20050;-80
2022/01/06 01:40:00;;;;;;;15.77;2.20;;;2.80;99.90;;;;;;4805492;29;20410;-80
2022/01/06 01:42:25;;;;;;;16.73;2.85;;;2.80;99.90;;;;;;4806435;29;20393;-80
2022/01/06 01:44:52;;;;;;;14.40;2.35;;;2.70;99.90;;;;;;4805477;29;20046;-80
2022/01/06 01:47:30;;;;;;;16.02;2.80;;;2.70;99.90;;;;;;4806244;29;20054;-81
2022/01/06 01:50:09;;;;;;;14.35;2.45;;;2.70;99.90;;;;;;4806784;29;20047;-80
2022/01/06 01:52:36;;;;;;;16.88;2.35;;;2.60;99.90;;;;;;4806634;29;20061;-79
2022/01/06 01:55:02;;;;;;;16.85;2.38;;;2.60;99.90;;;;;;4806703;29;20129;-80
2022/01/06 01:57:28;;;;;;;15.63;2.60;;;2.60;99.90;;;;;;4806239;29;20053;-80
2022/01/06 01:59:54;;;;;;;12.27;2.30;;;2.60;99.90;;;;;;4806488;29;20051;-80
2022/01/06 02:02:19;;;;;;;19.80;2.60;;;2.50;99.90;;;;;;4804872;29;20402;-80
2022/01/06 02:04:45;;;;;;;19.05;2.65;;;2.50;99.90;;;;;;4805501;29;20517;-80
2022/01/06 02:07:10;;;;;;;17.45;3.15;;;2.50;99.90;;;;;;4805609;29;20050;-81
2022/01/06 02:09:36;;;;;;;20.35;3.03;;;2.50;99.90;;;;;;4806106;29;20047;-80
2022/01/06 02:12:02;;;;;;;19.30;2.80;;;2.50;99.90;;;;;;4804840;29;20532;-80
2022/01/06 02:14:27;;;;;;;17.23;2.80;;;2.50;99.90;;;;;;4805595;29;20414;-80
2022/01/06 02:16:54;;;;;;;18.63;2.45;;;2.60;99.90;;;;;;4804892;29;20055;-80
2022/01/06 02:19:20;;;;;;;14.02;2.13;;;2.60;99.90;;;;;;4805485;29;20058;-80
2022/01/06 02:21:46;;;;;;;12.68;1.90;;;2.60;99.90;;;;;;4805259;29;20054;-80
2022/01/06 02:24:11;;;;;;;14.43;2.30;;;2.60;99.90;;;;;;4805256;29;20501;-80
2022/01/06 02:26:37;;;;;;;15.48;2.38;;;2.70;99.90;;;;;;4805739;29;20054;-80
2022/01/06 02:29:03;;;;;;;15.25;2.33;;;2.60;99.90;;;;;;4805623;29;20126;-81
2022/01/06 02:31:39;;;;;;;15.88;2.30;;;2.60;99.90;;;;;;4805179;29;20394;-80
2022/01/06 02:34:05;;;;;;;17.05;2.55;;;2.60;99.90;;;;;;4805619;29;20059;-80
2022/01/06 02:36:30;;;;;;;17.63;2.50;;;2.50;99.90;;;;;;4805158;29;20434;-80
2022/01/06 02:38:56;;;;;;;14.77;2.10;;;2.50;99.90;;;;;;4805627;29;20383;-80
2022/01/06 02:41:21;;;;;;;19.45;2.88;;;2.50;99.90;;;;;;4803837;29;20057;-80
2022/01/06 02:43:49;;;;;;;16.65;2.95;;;2.40;99.90;;;;;;4805053;29;20604;-80
2022/01/06 02:46:15;;;;;;;19.08;2.17;;;2.40;99.90;;;;;;4804860;29;20051;-80
2022/01/06 02:48:41;;;;;;;11.68;2.65;;;2.40;99.90;;;;;;4805687;29;20078;-80
2022/01/06 02:51:06;;;;;;;11.30;2.05;;;2.50;99.90;;;;;;4804936;29;20070;-80
2022/01/06 02:53:32;;;;;;;13.63;2.70;;;2.40;99.90;;;;;;4804961;29;20370;-80
2022/01/06 02:55:58;;;;;;;14.43;2.40;;;2.40;99.90;;;;;;4804528;29;20107;-80
2022/01/06 02:58:24;;;;;;;20.48;2.33;;;2.40;99.90;;;;;;4804953;29;20055;-80
2022/01/06 03:00:49;;;;;;;17.15;2.22;;;2.50;99.90;;;;;;4804011;29;20193;-80
2022/01/06 03:03:15;;;;;;;20.80;2.92;;;2.40;99.90;;;;;;4804847;29;20458;-81
2022/01/06 03:05:41;;;;;;;19.63;2.40;;;2.40;99.90;;;;;;4789230;29;20402;-80
2022/01/06 03:08:07;;;;;;;18.90;2.30;;;2.40;99.90;;;;;;4805240;29;20137;-80
2022/01/06 03:10:36;;;;;;;14.13;2.40;;;2.40;99.90;;;;;;4803856;29;20053;-80
2022/01/06 03:13:02;;;;;;;11.52;1.73;;;2.40;99.90;;;;;;4804163;29;20403;-80
2022/01/06 03:15:28;;;;;;;15.23;3.40;;;2.20;99.90;;;;;;4803532;29;20053;-80
2022/01/06 03:17:57;;;;;;;18.65;2.55;;;2.20;99.90;;;;;;4805039;29;20493;-80
2022/01/06 03:20:25;;;;;;;17.70;2.00;;;2.20;99.90;;;;;;4788899;29;20505;-81
2022/01/06 03:22:52;;;;;;;13.20;2.15;;;2.10;99.90;;;;;;4804129;29;20054;-80
2022/01/06 03:25:17;;;;;;;17.05;2.28;;;2.00;99.90;;;;;;4803701;29;20066;-80
2022/01/06 03:27:43;;;;;;;14.52;2.00;;;2.00;99.90;;;;;;4803957;29;20409;-80
2022/01/06 03:30:11;;;;;;;11.75;1.60;;;1.90;99.90;;;;;;4789102;29;20067;-80
2022/01/06 03:32:37;;;;;;;11.55;2.42;;;1.90;99.90;;;;;;4804419;29;20059;-81
2022/01/06 03:35:03;;;;;;;18.50;2.28;;;1.90;99.90;;;;;;4807326;29;20053;-81
2022/01/06 03:37:29;;;;;;;15.77;2.22;;;1.90;99.90;;;;;;4806979;29;20050;-80
2022/01/06 03:39:54;;;;;;;15.50;2.67;;;1.90;99.90;;;;;;4807312;29;20042;-80
2022/01/06 03:42:20;;;;;;;10.98;1.95;;;1.90;99.90;;;;;;4808458;29;20058;-81
2022/01/06 03:44:45;;;;;;;13.65;1.85;;;1.90;99.90;;;;;;4808512;29;20138;-80
2022/01/06 03:47:11;;;;;;;14.40;1.90;;;1.80;99.90;;;;;;4808281;29;20059;-80
2022/01/06 03:49:37;;;;;;;12.07;2.05;;;1.80;99.90;;;;;;4808048;29;20047;-80
2022/01/06 03:52:03;;;;;;;11.60;1.95;;;1.80;99.90;;;;;;4807355;29;20514;-80
2022/01/06 03:54:28;;;;;;;10.45;2.00;;;1.80;99.90;;;;;;4808307;29;20107;-80
2022/01/06 03:56:54;;;;;;;15.18;3.15;;;1.70;99.90;;;;;;4808270;29;20493;-80
2022/01/06 03:59:20;;;;;;;14.75;1.95;;;1.70;99.90;;;;;;4808614;29;20051;-80
2022/01/06 04:01:45;;;;;;;13.05;2.13;;;1.70;99.90;;;;;;4808184;29;20047;-80
2022/01/06 04:04:12;;;;;;;14.95;1.73;;;1.60;99.90;;;;;;4807240;29;20090;-80
2022/01/06 04:06:39;;;;;;;12.50;2.00;;;1.60;99.90;;;;;;4806807;29;20070;-80
2022/01/06 04:09:04;;;;;;;10.70;2.30;;;1.60;99.90;;;;;;4808243;29;20509;-80
2022/01/06 04:11:30;;;;;;;11.25;1.95;;;1.50;99.90;;;;;;4806742;29;20047;-80
2022/01/06 04:13:56;;;;;;;9.52;1.67;;;1.50;99.90;;;;;;4808416;29;20062;-80
2022/01/06 04:16:22;;;;;;;11.68;2.03;;;1.50;99.90;;;;;;4807352;29;20059;-80
2022/01/06 04:18:47;;;;;;;12.65;2.50;;;1.40;99.90;;;;;;4807861;29;20420;-80
2022/01/06 04:21:13;;;;;;;9.15;1.65;;;1.40;99.90;;;;;;4808167;29;20055;-80
2022/01/06 04:23:39;;;;;;;14.30;2.25;;;1.40;99.90;;;;;;4807858;29;20051;-80
2022/01/06 04:26:04;;;;;;;9.63;1.92;;;1.40;99.90;;;;;;4806934;29;20085;-80
2022/01/06 04:28:30;;;;;;;13.90;2.08;;;1.30;99.90;;;;;;4807741;29;20406;-80
2022/01/06 04:30:56;;;;;;;11.07;1.95;;;1.30;99.90;;;;;;4808071;29;20375;-80
2022/01/06 04:33:21;;;;;;;10.45;2.53;;;1.30;99.90;;;;;;4808423;29;20055;-80
2022/01/06 04:35:47;;;;;;;7.70;1.90;;;1.30;99.90;;;;;;4807586;29;20468;-80
2022/01/06 04:38:13;;;;;;;11.85;1.73;;;1.20;99.90;;;;;;4808058;29;20042;-80
2022/01/06 04:40:38;;;;;;;12.52;2.05;;;1.20;99.90;;;;;;4806161;29;20047;-80
2022/01/06 04:43:04;;;;;;;17.52;2.55;;;1.20;99.90;;;;;;4807916;29;20051;-80
2022/01/06 04:45:30;;;;;;;16.13;2.83;;;1.20;99.90;;;;;;4791025;29;20382;-81
2022/01/06 04:47:55;;;;;;;17.42;2.15;;;1.20;99.90;;;;;;4807512;29;20055;-80
2022/01/06 04:50:21;;;;;;;16.95;2.55;;;1.20;99.90;;;;;;4807522;29;20055;-80
2022/01/06 04:52:48;;;;;;;12.10;2.00;;;1.20;99.90;;;;;;4806399;29;20498;-80
2022/01/06 04:55:14;;;;;;;9.75;1.75;;;1.10;99.90;;;;;;4806046;29;20100;-80
2022/01/06 04:57:40;;;;;;;20.98;2.47;;;1.20;99.90;;;;;;4806159;29;20051;-80
2022/01/06 05:00:07;;;;;;;15.40;2.10;;;1.10;99.90;;;;;;4806964;29;20047;-81
2022/01/06 05:02:33;;;;;;;17.33;2.38;;;1.10;99.90;;;;;;4806728;29;20051;-81
2022/01/06 05:04:58;;;;;;;16.42;2.22;;;1.10;99.90;;;;;;4807378;29;20107;-80
2022/01/06 05:07:24;;;;;;;8.68;1.50;;;1.00;99.90;;;;;;4807488;29;20097;-80
2022/01/06 05:09:50;;;;;;;14.93;2.22;;;1.00;99.90;;;;;;4806955;29;20129;-80
2022/01/06 05:12:15;;;;;;;14.30;1.88;;;0.90;99.90;;;;;;4806254;29;20047;-80
2022/01/06 05:14:42;;;;;;;13.63;1.80;;;0.90;99.90;;;;;;4806510;29;20046;-80
2022/01/06 05:17:08;;;;;;;17.20;2.30;;;0.90;99.90;;;;;;4806815;29;20421;-80
2022/01/06 05:19:33;;;;;;;18.02;2.47;;;0.90;99.90;;;;;;4805513;29;20059;-81
2022/01/06 05:21:59;;;;;;;15.07;2.22;;;0.90;99.90;;;;;;4806758;29;20039;-80
2022/01/06 05:24:25;;;;;;;15.75;2.10;;;0.90;99.90;;;;;;4806859;29;20513;-80
2022/01/06 05:26:54;;;;;;;13.63;2.00;;;0.90;99.90;;;;;;4805482;29;20103;-80
2022/01/06 05:29:19;;;;;;;18.67;2.20;;;1.00;99.90;;;;;;4805793;29;20533;-82
2022/01/06 05:31:45;;;;;;;15.85;2.47;;;0.90;99.90;;;;;;4806435;29;20051;-83
2022/01/06 05:34:11;;;;;;;13.80;2.15;;;0.90;99.90;;;;;;4805312;29;20058;-81
2022/01/06 05:36:36;;;;;;;19.38;2.80;;;0.90;99.90;;;;;;4806552;29;20050;-83
2022/01/06 05:39:02;;;;;;;17.05;3.15;;;1.00;99.90;;;;;;4805932;29;20055;-82
2022/01/06 05:41:28;;;;;;;16.00;2.65;;;0.90;99.90;;;;;;4806787;29;20486;-80
2022/01/06 05:43:54;;;;;;;13.50;2.28;;;1.00;99.90;;;;;;4805307;29;20054;-81
2022/01/06 05:46:19;;;;;;;17.27;3.17;;;0.90;99.90;;;;;;4790709;29;20053;-80
2022/01/06 05:48:45;;;;;;;17.52;3.10;;;0.90;99.90;;;;;;4805430;29;20047;-81
2022/01/06 05:51:11;;;;;;;17.52;2.58;;;0.90;99.90;;;;;;4805565;29;20107;-81
2022/01/06 05:53:37;;;;;;;20.27;3.00;;;1.00;99.90;;;;;;4806299;29;20471;-81
2022/01/06 05:56:02;;;;;;;17.60;2.88;;;0.90;99.90;;;;;;4805919;29;20387;-82
2022/01/06 05:58:28;;;;;;;16.55;2.75;;;1.00;99.90;;;;;;4806010;29;20093;-82
2022/01/06 06:00:54;;;;;;;17.48;2.97;;;0.90;99.90;;;;;;4806096;29;20473;-82
2022/01/06 06:03:19;;;;;;;10.80;2.22;;;1.00;99.90;;;;;;4805294;29;20137;-82
2022/01/06 06:05:45;;;;;;;24.25;3.20;;;0.90;99.90;;;;;;4805021;29;20448;-82
2022/01/06 06:08:10;;;;;;;15.52;2.65;;;1.00;99.90;;;;;;4805288;29;20076;-82
2022/01/06 06:10:36;;;;;;;12.25;2.65;;;1.00;99.90;;;;;;4804941;29;20100;-82
2022/01/06 06:13:02;;;;;;;17.42;2.90;;;0.90;99.90;;;;;;4804532;29;20054;-82
2022/01/06 06:15:33;;;;;;;21.27;3.67;;;0.90;99.90;;;;;;4806070;29;20082;-82
2022/01/06 06:18:03;;;;;;;23.13;3.00;;;0.90;99.90;;;;;;4805812;29;20054;-82
2022/01/06 06:20:28;;;;;;;17.58;2.30;;;0.90;99.90;;;;;;4805015;29;20042;-82
2022/01/06 06:22:54;;;;;;;15.90;3.00;;;0.90;99.90;;;;;;4789555;29;20053;-80
2022/01/06 06:25:19;;;;;;;12.13;2.53;;;0.80;99.90;;;;;;4806106;29;20050;-81
2022/01/06 06:27:45;;;;;;;14.52;3.20;;;0.90;99.90;;;;;;4804256;29;20058;-81
2022/01/06 06:30:11;;;;;;;19.08;3.28;;;0.80;99.90;;;;;;4804689;29;20047;-82
2022/01/06 06:32:37;;;;;;;18.23;2.95;;;0.80;99.90;;;;;;4789126;29;20486;-82
2022/01/06 06:35:03;;;;;;;19.77;3.05;;;0.80;99.90;;;;;;4805104;29;20058;-82
2022/01/06 06:37:29;;;;;;;15.32;3.72;;;0.70;99.90;;;;;;4789550;29;20118;-81
2022/01/06 06:39:56;;;;;;;17.90;2.67;;;0.70;99.90;;;;;;4804911;29;20054;-82
2022/01/06 06:42:22;;;;;;;11.18;2.40;;;0.70;99.90;;;;;;4804589;29;20062;-81
2022/01/06 06:44:48;;;;;;;26.30;3.50;;;0.70;99.90;;;;;;4805290;29;20059;-81
2022/01/06 06:47:13;;;;;;;12.63;2.53;;;0.70;99.90;;;;;;4805626;29;20179;-82
2022/01/06 06:49:40;;;;;;;13.50;2.33;;;0.70;99.90;;;;;;4804620;29;20405;-80
2022/01/06 06:52:05;;;;;;;10.45;2.17;;;0.80;99.90;;;;;;4803931;29;20063;-81
2022/01/06 06:54:31;;;;;;;21.05;2.88;;;0.70;99.90;;;;;;4804518;29;20410;-81
2022/01/06 06:56:57;;;;;;;13.68;2.78;;;0.70;99.90;;;;;;4805250;29;20516;-83
2022/01/06 06:59:22;;;;;;;15.02;2.50;;;0.60;99.90;;;;;;4774365;29;20047;-79
2022/01/06 07:01:48;;;;;;;12.35;2.50;;;0.60;99.90;;;;;;4803941;29;20133;-79
2022/01/06 07:04:14;;;;;;;16.88;2.65;;;0.60;99.90;;;;;;4805543;29;20485;-77
2022/01/06 07:06:39;;;;;;;15.23;2.90;;;0.50;99.90;;;;;;4804386;29;20494;-77
2022/01/06 07:09:05;;;;;;;20.20;3.92;;;0.50;99.90;;;;;;4805262;29;20134;-78
2022/01/06 07:11:31;;;;;;;14.10;2.47;;;0.60;99.90;;;;;;4805374;29;20122;-77
2022/01/06 07:13:57;;;;;;;14.85;2.78;;;0.50;99.90;;;;;;4803929;29;20476;-78
2022/01/06 07:16:22;;;;;;;18.83;2.30;;;0.50;99.90;;;;;;4803947;29;20054;-78
2022/01/06 07:18:48;;;;;;;15.70;3.53;;;0.50;99.90;;;;;;4805413;29;20050;-77
2022/01/06 07:21:13;;;;;;;21.13;5.20;;;0.50;99.90;;;;;;4804994;29;20108;-78
2022/01/06 07:23:39;;;;;;;19.67;5.20;;;0.50;99.90;;;;;;4805337;29;20450;-78
2022/01/06 07:26:05;;;;;;;17.77;5.03;;;0.50;99.90;;;;;;4805047;29;20057;-78
2022/01/06 07:28:30;;;;;;;27.15;4.55;;;0.50;99.90;;;;;;4805355;29;20409;-78
2022/01/06 07:30:56;;;;;;;20.42;3.53;;;0.50;99.90;;;;;;4803896;29;20383;-78
2022/01/06 07:33:22;;;;;;;18.35;3.35;;;0.50;99.90;;;;;;4804365;29;20138;-78
2022/01/06 07:35:47;;;;;;;20.45;2.95;;;0.50;99.90;;;;;;4804245;29;20134;-78
2022/01/06 07:38:13;;;;;;;18.75;3.08;;;0.60;99.90;;;;;;4804916;29;20081;-78
2022/01/06 07:40:39;;;;;;;18.42;2.85;;;0.60;99.90;;;;;;4805176;29;20043;-78
2022/01/06 07:43:04;;;;;;;18.10;2.75;;;0.60;99.90;;;;;;4804985;29;20107;-78
2022/01/06 07:45:30;;;;;;;24.95;2.88;;;0.60;99.90;;;;;;4805200;29;20065;-78
2022/01/06 07:50:22;;;;;;;18.25;2.75;;;0.80;99.90;;;;;;4805062;29;20047;-78
2022/01/06 07:52:48;;;;;;;23.02;3.38;;;0.80;99.90;;;;;;4803581;29;20098;-78
2022/01/06 07:55:14;;;;;;;19.13;2.63;;;0.90;99.90;;;;;;4804711;29;20086;-78
2022/01/06 07:57:39;;;;;;;17.88;2.72;;;0.90;99.90;;;;;;4804869;29;20054;-81
2022/01/06 08:00:05;;;;;;;15.38;2.80;;;0.80;99.90;;;;;;4803340;29;20409;-79
2022/01/06 08:02:31;;;;;;;16.63;3.35;;;0.80;99.90;;;;;;4804836;29;20055;-79
2022/01/06 08:04:57;;;;;;;20.33;3.13;;;0.90;99.90;;;;;;4804554;29;20061;-80
2022/01/06 08:07:22;;;;;;;19.15;3.38;;;0.80;99.90;;;;;;4804957;29;20047;-78
2022/01/06 08:09:48;;;;;;;18.92;4.72;;;0.80;99.90;;;;;;4804808;29;20050;-80
2022/01/06 08:12:13;;;;;;;19.48;5.22;;;0.80;99.90;;;;;;4804503;29;20513;-79
2022/01/06 08:14:39;;;;;;;17.15;3.65;;;0.80;99.90;;;;;;4804996;29;20051;-80
2022/01/06 08:17:05;;;;;;;20.98;5.68;;;0.80;99.90;;;;;;4804519;29;20057;-80
2022/01/06 08:19:30;;;;;;;20.10;5.85;;;0.80;99.90;;;;;;4804889;29;20051;-81
2022/01/06 08:21:56;;;;;;;20.38;6.63;;;0.80;99.90;;;;;;4807638;29;20518;-81
2022/01/06 08:24:22;;;;;;;25.27;7.45;;;0.80;99.90;;;;;;4807573;29;20046;-80
2022/01/06 08:26:50;;;;;;;25.13;6.85;;;0.80;99.90;;;;;;4808646;29;20050;-88
2022/01/06 08:29:16;;;;;;;17.73;5.80;;;0.80;99.90;;;;;;4806408;29;20051;-82
2022/01/06 08:31:42;;;;;;;21.85;5.55;;;0.70;99.90;;;;;;4807157;29;20065;-82
2022/01/06 08:34:07;;;;;;;21.17;5.47;;;0.80;99.90;;;;;;4807593;29;20043;-83
2022/01/06 08:36:33;;;;;;;23.80;4.72;;;0.80;99.90;;;;;;4808081;29;20051;-82
2022/01/06 08:38:58;;;;;;;15.60;4.50;;;0.70;99.90;;;;;;4808172;29;20090;-81
2022/01/06 08:41:24;;;;;;;19.70;4.90;;;0.80;99.90;;;;;;4791224;29;20047;-80
2022/01/06 08:43:50;;;;;;;14.88;3.97;;;0.80;99.90;;;;;;4807540;29;20494;-81
2022/01/06 08:46:15;;;;;;;19.23;3.78;;;0.80;99.90;;;;;;4807295;29;20062;-83
2022/01/06 08:48:41;;;;;;;19.27;4.18;;;0.80;99.90;;;;;;4806379;29;20484;-81
2022/01/06 08:51:07;;;;;;;21.88;3.75;;;0.80;99.90;;;;;;4806564;29;20062;-83
2022/01/06 08:53:32;;;;;;;17.75;4.22;;;0.80;99.90;;;;;;4805693;29;20082;-81
2022/01/06 08:55:58;;;;;;;26.70;3.90;;;0.80;99.90;;;;;;4807606;29;20101;-83
2022/01/06 08:58:24;;;;;;;20.35;3.90;;;0.90;99.90;;;;;;4791178;29;20532;-80
2022/01/06 09:00:49;;;;;;;22.25;4.20;;;0.90;99.90;;;;;;4807564;29;20042;-82
2022/01/06 09:03:15;;;;;;;16.73;3.20;;;0.90;99.90;;;;;;4807158;29;20076;-82
2022/01/06 09:05:40;;;;;;;19.75;3.50;;;0.90;99.90;;;;;;4806456;29;20071;-82
2022/01/06 09:08:06;;;;;;;23.83;3.78;;;1.00;99.90;;;;;;4807109;29;20057;-84
2022/01/06 09:10:34;;;;;;;17.98;3.42;;;1.00;99.90;;;;;;4806344;29;20444;-82
2022/01/06 09:13:03;;;;;;;21.58;2.88;;;1.00;99.90;;;;;;4806535;29;20145;-81
2022/01/06 09:15:29;;;;;;;17.90;3.72;;;1.10;99.90;;;;;;4790870;29;20058;-82
2022/01/06 09:17:54;;;;;;;27.40;4.50;;;1.10;99.90;;;;;;4806207;29;20057;-82
2022/01/06 09:20:20;;;;;;;21.73;4.32;;;1.20;99.90;;;;;;4790838;29;20055;-82
2022/01/06 09:22:46;;;;;;;22.67;4.82;;;1.20;99.90;;;;;;4791189;29;20508;-81
2022/01/06 09:25:13;;;;;;;23.00;4.68;;;1.40;99.90;;;;;;4805714;29;20057;-81
2022/01/06 09:27:39;;;;;;;23.27;5.35;;;1.30;99.90;;;;;;4791376;29;20062;-81
2022/01/06 09:30:05;;;;;;;27.55;4.78;;;1.30;99.90;;;;;;4806086;29;20055;-82
2022/01/06 09:32:31;;;;;;;21.10;5.88;;;1.30;99.90;;;;;;4806612;29;20086;-82
2022/01/06 09:34:56;;;;;;;25.23;5.55;;;1.40;99.90;;;;;;4791383;29;20097;-80
2022/01/06 09:37:22;;;;;;;20.40;4.38;;;1.40;99.90;;;;;;4790429;29;20051;-82
2022/01/06 09:39:48;;;;;;;21.10;3.92;;;1.40;99.90;;;;;;4805907;29;20055;-81
2022/01/06 09:42:14;;;;;;;24.17;4.22;;;1.50;99.90;;;;;;4805408;29;20047;-81
2022/01/06 09:44:40;;;;;;;24.77;4.20;;;1.50;99.90;;;;;;4806030;29;20054;-81
2022/01/06 09:47:08;;;;;;;18.63;4.15;;;1.50;99.90;;;;;;4805690;29;20375;-80
2022/01/06 09:49:38;;;;;;;28.88;4.88;;;1.60;99.90;;;;;;4806632;29;20599;-80
2022/01/06 09:52:07;;;;;;;27.52;4.43;;;1.60;99.90;;;;;;4805600;29;20051;-81
2022/01/06 09:54:34;;;;;;;17.38;4.38;;;1.80;99.90;;;;;;4805256;29;20130;-81
2022/01/06 09:56:59;;;;;;;20.27;4.88;;;1.80;99.90;;;;;;4790653;29;20058;-81
2022/01/06 09:59:25;;;;;;;23.73;4.70;;;1.90;99.90;;;;;;4805074;29;20047;-81
2022/01/06 10:01:51;;;;;;;18.00;4.60;;;2.00;99.90;;;;;;4805441;29;20456;-81
2022/01/06 10:04:18;;;;;;;22.33;4.57;;;2.00;99.90;;;;;;4806159;29;20067;-83
2022/01/06 10:06:44;;;;;;;23.10;4.80;;;2.10;99.90;;;;;;4805400;29;20055;-82
2022/01/06 10:09:09;;;;;;;17.52;4.22;;;2.10;99.90;;;;;;4790388;29;20150;-79
2022/01/06 10:11:35;;;;;;;25.17;4.43;;;2.20;99.90;;;;;;4804378;29;20410;-80
2022/01/06 10:14:09;;;;;;;19.67;4.00;;;2.20;99.90;;;;;;4805052;29;20057;-82
2022/01/06 10:16:37;;;;;;;28.17;4.45;;;2.30;99.90;;;;;;4805924;29;20053;-83
2022/01/06 10:19:07;;;;;;;17.92;3.92;;;2.30;99.90;;;;;;4775076;29;20528;-83
2022/01/06 10:21:44;;;;;;;19.63;4.18;;;2.30;99.90;;;;;;4804727;29;20059;-83
2022/01/06 10:24:17;;;;;;;22.20;4.40;;;2.40;99.90;;;;;;4805149;29;20051;-83
2022/01/06 10:26:56;;;;;;;;;;;2.40;99.90;;;;;;4806604;29;20498;-82
2022/01/06 10:29:22;;;;;;;21.40;3.45;;;2.40;99.90;;;;;;4804664;29;19929;-82
2022/01/06 10:31:48;;;;;;;21.52;3.72;;;2.50;99.90;;;;;;4804911;29;20418;-85
2022/01/06 10:34:13;;;;;;;19.27;3.22;;;2.50;99.90;;;;;;4804853;29;20057;-81
2022/01/06 10:36:40;;;;;;;19.90;3.47;;;2.60;99.90;;;;;;4804493;29;20486;-82
2022/01/06 10:39:08;;;;;;;24.40;3.80;;;2.70;99.90;;;;;;4804772;29;20062;-81
2022/01/06 10:41:35;;;;;;;19.23;3.78;;;2.80;99.90;;;;;;4804011;29;20055;-78
2022/01/06 10:44:00;;;;;;;19.67;3.00;;;2.80;99.90;;;;;;4803725;29;20058;-78
2022/01/06 10:46:38;;;;;;;21.10;4.10;;;2.90;99.90;;;;;;4804442;29;20062;-78
2022/01/06 10:49:08;;;;;;;18.85;3.35;;;2.90;99.90;;;;;;4805294;29;20062;-78
2022/01/06 10:51:44;;;;;;;20.10;3.42;;;3.00;99.90;;;;;;4804919;29;20043;-78
2022/01/06 10:54:27;;;;;;;20.17;3.05;;;3.10;99.90;;;;;;4805465;29;20071;-78
2022/01/06 10:57:00;;;;;;;15.98;3.10;;;3.30;99.90;;;;;;4805294;29;20058;-78
2022/01/06 10:59:26;;;;;;;15.93;2.95;;;3.30;99.90;;;;;;4804054;29;20133;-79
2022/01/06 11:01:52;;;;;;;17.58;2.90;;;3.30;99.90;;;;;;4804440;29;20138;-78
2022/01/06 11:04:18;;;;;;;17.23;2.67;;;3.40;99.90;;;;;;4804486;29;20501;-78
2022/01/06 11:06:43;;;;;;;18.17;3.08;;;3.40;99.90;;;;;;4804088;29;20371;-78
2022/01/06 11:09:11;;;;;;;22.40;3.33;;;3.50;99.90;;;;;;4805612;29;20107;-79
2022/01/06 11:14:24;;;;;;;20.20;2.60;;;3.60;99.90;;;;;;4805122;29;20111;-80
2022/01/06 11:16:50;;;;;;;17.77;3.55;;;3.70;99.90;;;;;;4804414;29;20490;-78
2022/01/06 11:19:16;;;;;;;18.08;2.95;;;3.80;99.90;;;;;;4804319;29;20134;-78
2022/01/06 11:21:44;;;;;;;17.02;3.40;;;3.80;99.90;;;;;;4803973;29;20046;-78
2022/01/06 11:24:11;;;;;;;19.38;3.53;;;3.90;99.90;;;;;;4805438;29;20135;-78
2022/01/06 11:26:37;;;;;;;12.13;3.35;;;4.00;99.90;;;;;;4804963;29;20058;-78
2022/01/06 11:29:03;;;;;;;22.45;2.97;;;4.10;99.90;;;;;;4804337;29;20047;-79
2022/01/06 11:31:42;;;;;;;15.32;2.97;;;4.10;99.90;;;;;;4805050;29;20578;-79
2022/01/06 11:34:18;;;;;;;20.10;3.42;;;4.20;99.90;;;;;;4805310;29;20047;-78
2022/01/06 11:36:45;;;;;;;18.77;3.25;;;4.30;99.90;;;;;;4804706;29;20569;-78
2022/01/06 11:39:40;;;;;;;22.10;3.60;;;4.30;99.90;;;;;;4789448;29;20051;-78
2022/01/06 11:42:17;;;;;;;15.68;2.72;;;4.50;99.90;;;;;;4804360;29;20061;-78
2022/01/06 11:44:55;;;;;;;19.33;3.13;;;4.40;99.90;;;;;;4804911;29;20527;-78
2022/01/06 11:47:37;;;;;;;18.85;3.22;;;4.50;99.90;;;;;;4805250;29;20098;-78
2022/01/06 11:50:19;;;;;;;11.75;2.45;;;4.50;99.90;;;;;;4805281;29;20134;-79
2022/01/06 11:52:55;;;;;;;19.63;3.15;;;4.60;99.90;;;;;;4803467;29;20102;-78
2022/01/06 11:55:22;;;;;;;20.10;2.97;;;4.60;99.90;;;;;;4806426;29;20057;-78
2022/01/06 11:57:48;;;;;;;18.52;3.03;;;4.70;99.90;;;;;;4808169;29;20137;-78
2022/01/06 12:00:24;;;;;;;19.80;2.85;;;4.70;99.90;;;;;;4807526;29;20137;-78
2022/01/06 12:03:03;;;;;;;16.42;2.97;;;4.70;99.90;;;;;;4808268;29;20059;-78
2022/01/06 12:05:41;;;;;;;16.63;2.80;;;4.90;99.90;;;;;;4807547;29;20141;-78
2022/01/06 12:08:07;;;;;;;21.17;3.25;;;4.80;99.90;;;;;;4808464;29;20138;-78
2022/01/06 12:10:43;;;;;;;16.75;3.05;;;4.80;99.90;;;;;;4807987;29;20058;-79
2022/01/06 12:13:08;;;;;;;14.75;2.60;;;4.80;99.90;;;;;;4807253;29;20134;-78
2022/01/06 12:15:50;;;;;;;18.58;2.67;;;4.80;99.90;;;;;;4792070;29;20477;-78
2022/01/06 12:18:23;;;;;;;13.63;2.65;;;4.90;99.90;;;;;;4807229;29;20066;-78
2022/01/06 12:20:49;;;;;;;13.52;2.70;;;5.00;99.90;;;;;;4806716;29;20050;-78
2022/01/06 12:23:15;;;;;;;20.77;3.30;;;4.90;99.90;;;;;;4807099;29;20050;-78
2022/01/06 12:25:41;;;;;;;19.00;2.83;;;4.90;99.90;;;;;;4806716;29;20061;-79
2022/01/06 12:28:10;;;;;;;17.95;2.72;;;4.90;99.90;;;;;;4807292;29;20487;-78
2022/01/06 12:30:38;;;;;;;15.40;2.95;;;5.00;99.90;;;;;;4807746;29;20132;-79
2022/01/06 12:33:06;;;;;;;20.15;2.92;;;5.00;99.90;;;;;;4807924;29;20071;-78
2022/01/06 12:35:48;;;;;;;14.50;3.05;;;5.00;99.90;;;;;;4806620;29;20129;-78
2022/01/06 12:38:14;;;;;;;15.55;2.90;;;5.10;99.90;;;;;;4806915;29;20124;-79
2022/01/06 12:40:42;;;;;;;14.82;2.80;;;5.10;99.90;;;;;;4807457;29;20439;-79
2022/01/06 12:43:16;;;;;;;22.35;3.20;;;5.10;99.90;;;;;;4807664;29;20094;-79
2022/01/06 12:45:43;;;;;;;16.15;2.92;;;5.10;99.90;;;;;;4807412;29;20436;-78
2022/01/06 12:48:09;;;;;;;11.63;2.53;;;5.10;99.90;;;;;;4806646;29;20055;-78
2022/01/06 12:51:01;;;;;;;14.60;2.70;;;5.20;99.90;;;;;;4806583;29;20112;-78
2022/01/06 12:53:32;;;;;;;14.82;2.63;;;5.20;99.90;;;;;;4807442;29;20058;-90
2022/01/06 12:55:58;;;;;;;13.85;2.60;;;5.10;99.90;;;;;;4791367;29;20270;-79
2022/01/06 12:58:25;;;;;;;16.40;2.40;;;5.10;99.90;;;;;;4807667;29;20130;-78
2022/01/06 13:00:55;;;;;;;9.50;2.30;;;5.10;99.90;;;;;;4807131;29;20051;-77